*** DING..DANG..DONG and DONG ***

TR)

Hava sahamızda SMART projesi kapsamında LTBB_CTR sektör ismi "Ankara Kontrol" olarak değişmiştir. Tüm uçuş yapan pilotlarımızın hava sahamızda yapılan güncellemeleri chartlarından bir kez daha kontrol etmelerini rica ederiz. 

Kırımsız uçuşlar dileriz.

 

EN)

According to SMART project, LTBB_CTR sector was renamed as "Ankara Control". We kindly request our pilots check updates from their charts once more time. 

Have a safe flight.

 

For more info please contact us via welcome@turvacc.org 

 

Have a great flight in VATSIM Turkish Airspace!

VATSIM Turkiye / TURvACC Crew

 

 

 

1 Hava sahamızda uçuş yapan bir pilot musunuz?     
Are you a pilot flys in our airspace?
2 Hava sahamızda yetkili bir kontrolör müsünüz?   
Are you an authorized controller in our airspace? 

 

 

UTC
Istanbul

Istanbul WX Radar

Events Booking Upcoming events

There are no up-coming events

VATSIM Türkiye Airspace Online Traffic

-> LTBA 291820Z 16005KT 130V200 CAVOK 22/14 Q1013 NOSIG
-> LTFJ 291820Z VRB02KT CAVOK 20/15 Q1013 NOSIG
-> LTAC 291820Z 16002KT 9999 FEW040 14/10 Q1017 NOSIG
-> LTAI 291820Z 06005KT 9999 FEW030 BKN200 21/16 Q1013 NOSIG
-> LTCG 291820Z VRB02KT 9999 -SHRA SCT033 BKN100 17/15 Q1014 NOSIG
-> LTCC 291820Z 36004KT 9999 SCT040 BKN100 16/12 Q1013 NOSIG

Online ATC & vACC Staff

ATC Bookings List

LTAC FlightRadar Live Traffic
LTBA FlightRadar Live Traffic
LTAI FlightRadar Live Traffic